Time;durP1;ratioP1;P1;durP2;ratioP2;P2;SDS_P1;SDS_P2;PMS_P1;PMS_P2;Temp;Humidity;BMP_temperature;BMP_pressure;BME280_temperature;BME280_humidity;BME280_pressure;Samples;Min_cycle;Max_cycle;Signal;HPM_P1;HPM_P2
2022/01/11 00:01:27;;;;;;;53.45;20.15;;;;;;;-1.06;100.00;102957.03;4995905;28;20438;-49
2022/01/11 00:03:53;;;;;;;48.72;19.35;;;;;;;-1.06;100.00;102957.03;4995071;28;20033;-50
2022/01/11 00:06:29;;;;;;;48.85;20.88;;;;;;;-1.05;100.00;102961.47;4995433;28;20030;-49
2022/01/11 00:09:00;;;;;;;54.35;21.55;;;;;;;-1.06;100.00;102973.34;4995270;28;20030;-53
2022/01/11 00:11:26;;;;;;;55.20;20.02;;;;;;;-1.11;100.00;102971.16;4995520;28;20034;-51
2022/01/11 00:13:52;;;;;;;56.83;22.45;;;;;;;-1.16;100.00;102979.84;4995016;28;20036;-52
2022/01/11 00:16:17;;;;;;;55.03;21.35;;;;;;;-1.21;100.00;102984.09;4994768;28;20431;-49
2022/01/11 00:18:43;;;;;;;59.33;21.90;;;;;;;-1.20;100.00;102981.19;4994787;28;20036;-48
2022/01/11 00:21:08;;;;;;;148.70;32.60;;;;;;;-1.21;100.00;102978.66;4995636;28;20026;-51
2022/01/11 00:25:59;;;;;;;58.30;20.55;;;;;;;-1.21;100.00;102982.19;4995097;28;20043;-48
2022/01/11 00:28:26;;;;;;;47.67;21.83;;;;;;;-1.22;100.00;102991.38;4995122;28;20058;-52
2022/01/11 00:30:52;;;;;;;60.25;20.75;;;;;;;-1.22;100.00;102999.53;4995451;28;20049;-52
2022/01/11 00:33:25;;;;;;;49.60;20.77;;;;;;;-1.19;100.00;102993.75;4994690;28;20105;-52
2022/01/11 00:35:59;;;;;;;48.20;22.42;;;;;;;-1.18;100.00;102998.16;4995858;28;20022;-50
2022/01/11 00:38:28;;;;;;;49.55;20.70;;;;;;;-1.13;100.00;103003.91;4994933;28;20027;-52
2022/01/11 00:40:56;;;;;;;47.50;20.95;;;;;;;-1.16;100.00;102981.69;4995729;28;20158;-49
2022/01/11 00:43:23;;;;;;;84.38;25.45;;;;;;;-1.19;100.00;102973.91;4994910;28;20065;-49
2022/01/11 00:45:50;;;;;;;59.78;23.10;;;;;;;-1.07;100.00;102991.50;4994582;28;20042;-52
2022/01/11 00:48:16;;;;;;;57.72;22.92;;;;;;;-1.06;100.00;102997.78;4994996;28;20027;-50
2022/01/11 00:50:42;;;;;;;55.80;23.02;;;;;;;-1.06;100.00;102986.94;4995177;28;20084;-49
2022/01/11 00:53:08;;;;;;;50.35;22.92;;;;;;;-1.06;100.00;102992.38;4995146;28;20026;-49
2022/01/11 00:55:34;;;;;;;46.42;21.52;;;;;;;-1.08;100.00;102988.97;4994760;28;20046;-48
2022/01/11 00:58:02;;;;;;;40.65;21.38;;;;;;;-1.10;100.00;102989.16;4994465;28;20033;-50
2022/01/11 01:00:28;;;;;;;88.03;30.88;;;;;;;-1.07;100.00;102982.50;4994473;28;20041;-50
2022/01/11 01:02:53;;;;;;;43.03;22.60;;;;;;;-1.08;100.00;102988.97;4994308;28;20022;-50
2022/01/11 01:05:18;;;;;;;44.38;20.38;;;;;;;-1.11;100.00;103001.03;4994105;28;20022;-49
2022/01/11 01:07:44;;;;;;;43.58;21.90;;;;;;;-1.15;100.00;103005.13;4994671;28;20054;-48
2022/01/11 01:10:24;;;;;;;46.85;21.05;;;;;;;-1.13;100.00;103005.78;4994236;28;20026;-47
2022/01/11 01:12:51;;;;;;;39.25;21.13;;;;;;;-1.15;100.00;103003.25;4994902;28;20033;-47
2022/01/11 01:15:17;;;;;;;38.00;19.45;;;;;;;-1.18;100.00;103006.31;4994370;28;20470;-49
2022/01/11 01:17:42;;;;;;;38.88;19.23;;;;;;;-1.17;100.00;103002.56;4992400;28;20033;-50
2022/01/11 01:20:08;;;;;;;38.33;21.02;;;;;;;-1.20;100.00;102994.75;4993808;28;20125;-50
2022/01/11 01:22:33;;;;;;;47.65;24.13;;;;;;;-1.23;100.00;102994.28;4993795;28;20470;-52
2022/01/11 01:24:59;;;;;;;186.38;42.80;;;;;;;-1.23;100.00;102989.72;4993807;28;20030;-51
2022/01/11 01:27:24;;;;;;;43.42;20.33;;;;;;;-1.20;100.00;102997.47;4994220;28;20478;-48
2022/01/11 01:29:49;;;;;;;39.63;20.08;;;;;;;-1.19;100.00;102995.63;4994059;28;20045;-48
2022/01/11 01:32:15;;;;;;;39.13;19.48;;;;;;;-1.17;100.00;103008.00;4993402;28;20089;-50
2022/01/11 01:34:40;;;;;;;42.88;20.58;;;;;;;-1.16;100.00;103003.41;4994240;28;20078;-49
2022/01/11 01:37:07;;;;;;;39.88;20.50;;;;;;;-1.21;100.00;102998.50;4994015;28;20026;-48
2022/01/11 01:39:33;;;;;;;40.03;20.40;;;;;;;-1.24;100.00;102998.88;4993488;28;20033;-51
2022/01/11 01:41:58;;;;;;;39.42;21.38;;;;;;;-1.28;100.00;103002.94;4994029;28;20030;-51
2022/01/11 01:44:25;;;;;;;38.33;20.42;;;;;;;-1.28;100.00;103009.25;4992921;28;20093;-51
2022/01/11 01:46:50;;;;;;;44.47;21.67;;;;;;;-1.27;100.00;103010.91;4992925;28;20030;-49
2022/01/11 01:49:18;;;;;;;46.70;21.95;;;;;;;-1.23;100.00;103016.88;4993305;28;20045;-51
2022/01/11 01:51:45;;;;;;;48.00;25.27;;;;;;;-1.20;100.00;103012.94;4991892;28;20026;-51
2022/01/11 01:54:12;;;;;;;44.50;20.90;;;;;;;-1.13;100.00;103005.78;4993331;28;20034;-49
2022/01/11 01:56:37;;;;;;;35.63;18.85;;;;;;;-1.01;100.00;102998.09;4992061;28;20042;-48
2022/01/11 01:59:03;;;;;;;43.85;22.23;;;;;;;-1.06;100.00;103000.50;4993918;28;20047;-50
2022/01/11 02:01:32;;;;;;;40.15;20.73;;;;;;;-0.99;100.00;103007.78;4992814;28;20081;-47
2022/01/11 02:03:57;;;;;;;38.40;20.00;;;;;;;-0.98;100.00;103001.31;4993183;28;20054;-48
2022/01/11 02:06:22;;;;;;;39.67;19.98;;;;;;;-0.97;100.00;103007.63;4993345;28;20153;-50
2022/01/11 02:08:49;;;;;;;39.53;20.75;;;;;;;-1.07;100.00;103009.69;4992871;28;20521;-48
2022/01/11 02:11:16;;;;;;;39.90;20.48;;;;;;;-1.08;100.00;103003.38;4993009;28;20061;-48
2022/01/11 02:13:41;;;;;;;37.97;20.63;;;;;;;-0.98;100.00;103016.78;4993204;28;20045;-47
2022/01/11 02:16:07;;;;;;;41.67;21.95;;;;;;;-1.01;100.00;103014.41;4993186;28;20026;-47
2022/01/11 02:18:33;;;;;;;38.78;20.23;;;;;;;-0.98;100.00;103014.91;4992910;28;20498;-48
2022/01/11 02:20:59;;;;;;;38.83;20.35;;;;;;;-0.98;100.00;103008.63;4993063;28;20038;-49
2022/01/11 02:23:27;;;;;;;42.28;20.30;;;;;;;-1.09;100.00;102990.84;4993121;28;20018;-48
2022/01/11 02:25:53;;;;;;;67.15;26.08;;;;;;;-1.00;100.00;103013.38;4993255;28;20022;-47
2022/01/11 02:28:21;;;;;;;38.55;20.40;;;;;;;-1.01;100.00;103019.84;4993388;28;20359;-51
2022/01/11 02:30:48;;;;;;;42.42;20.15;;;;;;;-1.03;100.00;103027.31;4993329;28;20045;-48
2022/01/11 02:33:32;;;;;;;41.22;20.48;;;;;;;-1.10;100.00;103029.91;4992097;28;20157;-48
2022/01/11 02:35:58;;;;;;;39.55;19.63;;;;;;;-1.23;100.00;103035.88;4993612;28;20027;-48
2022/01/11 02:38:23;;;;;;;45.63;21.98;;;;;;;-1.24;100.00;103036.03;4993138;28;20045;-48
2022/01/11 02:40:48;;;;;;;37.40;19.17;;;;;;;-1.21;100.00;103033.81;4993177;28;20053;-49
2022/01/11 02:43:14;;;;;;;39.58;19.33;;;;;;;-1.12;100.00;103038.22;4993076;28;20077;-50
2022/01/11 02:45:39;;;;;;;41.03;19.60;;;;;;;-1.16;100.00;103045.03;4992957;28;20028;-50
2022/01/11 02:48:05;;;;;;;39.53;19.45;;;;;;;-1.17;100.00;103048.75;4993345;28;20161;-48
2022/01/11 02:50:31;;;;;;;55.80;21.58;;;;;;;-1.20;100.00;103043.66;4992890;28;20038;-48
2022/01/11 02:52:56;;;;;;;40.10;21.08;;;;;;;-1.24;100.00;103047.75;4991512;28;20026;-50
2022/01/11 02:55:21;;;;;;;43.33;21.45;;;;;;;-1.27;100.00;103050.81;4994977;28;20050;-50
2022/01/11 02:57:47;;;;;;;41.20;19.90;;;;;;;-1.26;100.00;103047.06;4997369;28;20049;-49
2022/01/11 03:00:15;;;;;;;39.08;20.30;;;;;;;-1.30;100.00;103043.88;4997131;28;20460;-48
2022/01/11 03:02:41;;;;;;;39.75;20.85;;;;;;;-1.30;100.00;103049.28;4996498;28;20153;-50
2022/01/11 03:05:10;;;;;;;48.65;24.67;;;;;;;-1.31;100.00;103055.75;4996757;28;20109;-48
2022/01/11 03:07:35;;;;;;;50.90;26.50;;;;;;;-1.33;100.00;103059.66;4997344;28;20034;-49
2022/01/11 03:10:04;;;;;;;45.83;21.70;;;;;;;-1.33;100.00;103054.22;4995972;28;20121;-49
2022/01/11 03:12:31;;;;;;;44.78;22.77;;;;;;;-1.32;100.00;103056.75;4996308;28;20027;-50
2022/01/11 03:14:56;;;;;;;44.85;21.25;;;;;;;-1.22;100.00;103058.44;4995927;28;20026;-52
2022/01/11 03:17:22;;;;;;;45.03;21.58;;;;;;;-1.22;100.00;103058.44;4996694;28;20031;-49
2022/01/11 03:19:48;;;;;;;48.30;22.38;;;;;;;-1.24;100.00;103044.19;4996476;28;20441;-47
2022/01/11 03:22:13;;;;;;;43.08;22.55;;;;;;;-1.24;100.00;103041.47;4996373;28;20037;-53
2022/01/11 03:24:38;;;;;;;43.20;21.63;;;;;;;-1.24;100.00;103044.19;4996815;28;20401;-49
2022/01/11 03:27:06;;;;;;;40.55;21.15;;;;;;;-1.23;100.00;103045.88;4996553;28;20061;-50
2022/01/11 03:29:32;;;;;;;43.25;20.52;;;;;;;-1.24;100.00;103050.47;4996400;28;20079;-49
2022/01/11 03:31:58;;;;;;;42.85;22.20;;;;;;;-1.27;100.00;103045.38;4996256;28;20033;-49
2022/01/11 03:34:23;;;;;;;43.60;20.85;;;;;;;-1.27;100.00;103050.81;4996697;28;20109;-49
2022/01/11 03:36:48;;;;;;;47.10;21.92;;;;;;;-1.31;100.00;103054.88;4996073;28;20044;-49
2022/01/11 03:39:14;;;;;;;45.08;22.65;;;;;;;-1.32;100.00;103051.31;4996343;28;20193;-49
2022/01/11 03:41:39;;;;;;;44.15;23.10;;;;;;;-1.37;100.00;103045.53;4995728;28;20543;-51
2022/01/11 03:44:04;;;;;;;54.70;28.35;;;;;;;-1.37;100.00;103044.72;4996129;28;20109;-49
2022/01/11 03:46:30;;;;;;;43.75;22.08;;;;;;;-1.33;100.00;103043.38;4996115;28;20493;-48
2022/01/11 03:48:55;;;;;;;44.78;22.83;;;;;;;-1.24;100.00;103042.31;4996546;28;20109;-48
2022/01/11 03:51:20;;;;;;;50.00;23.85;;;;;;;-1.21;100.00;103052.00;4996077;28;20073;-49
2022/01/11 03:56:40;;;;;;;;;;;;;;;-1.12;100.00;103054.50;4991829;28;20058;-48
2022/01/11 03:59:08;;;;;;;41.70;21.95;;;;;;;-1.17;100.00;103056.03;4994779;28;20012;-47
2022/01/11 04:01:37;;;;;;;44.50;20.77;;;;;;;-1.21;100.00;103057.41;4996014;28;20026;-49
2022/01/11 04:04:04;;;;;;;43.20;21.63;;;;;;;-1.25;100.00;103056.94;4995893;28;20034;-50
2022/01/11 04:06:29;;;;;;;46.67;23.25;;;;;;;-1.22;100.00;103059.28;4994933;28;20548;-50
2022/01/11 04:08:55;;;;;;;73.75;29.45;;;;;;;-1.24;100.00;103053.19;4995966;28;20026;-48
2022/01/11 04:11:21;;;;;;;46.28;23.35;;;;;;;-1.16;100.00;103061.31;4994581;28;20027;-48
2022/01/11 04:13:47;;;;;;;46.35;22.63;;;;;;;-1.19;100.00;103055.38;4995636;28;20041;-49
2022/01/11 04:16:13;;;;;;;48.35;22.63;;;;;;;-1.19;100.00;103055.38;4995749;28;20489;-49
2022/01/11 04:18:38;;;;;;;47.38;23.17;;;;;;;-1.23;100.00;103054.88;4995784;28;20039;-48
2022/01/11 04:21:04;;;;;;;48.45;24.08;;;;;;;-1.22;100.00;103070.13;4995518;28;20097;-48
2022/01/11 04:23:30;;;;;;;52.65;26.05;;;;;;;-1.22;100.00;103061.16;4995088;28;20026;-49
2022/01/11 04:25:56;;;;;;;45.45;22.15;;;;;;;-1.26;100.00;103064.22;4995441;28;20026;-50
2022/01/11 04:28:23;;;;;;;44.00;20.88;;;;;;;-1.23;100.00;103060.31;4995260;28;20038;-48
2022/01/11 04:30:52;;;;;;;43.72;23.02;;;;;;;-1.28;100.00;103058.13;4994030;28;20038;-48
2022/01/11 04:33:18;;;;;;;46.47;23.17;;;;;;;-1.33;100.00;103057.78;4995790;28;20080;-49
2022/01/11 04:35:48;;;;;;;45.28;23.35;;;;;;;-1.33;100.00;103076.78;4996103;28;20072;-47
2022/01/11 04:38:20;;;;;;;42.88;23.95;;;;;;;-1.41;100.00;103079.50;4995201;28;20058;-47
2022/01/11 04:40:46;;;;;;;47.25;22.48;;;;;;;-1.51;100.00;103068.81;4995628;28;20117;-48
2022/01/11 04:43:11;;;;;;;43.75;22.95;;;;;;;-1.52;100.00;103074.41;4995178;28;20053;-47
2022/01/11 04:45:37;;;;;;;46.58;24.05;;;;;;;-1.50;100.00;103083.25;4995571;28;20022;-48
2022/01/11 04:48:03;;;;;;;47.53;25.00;;;;;;;-1.47;100.00;103082.91;4995429;28;20174;-47
2022/01/11 04:50:28;;;;;;;48.35;23.25;;;;;;;-1.47;100.00;103086.47;4995153;28;20493;-48
2022/01/11 04:52:54;;;;;;;42.63;22.30;;;;;;;-1.48;100.00;103073.06;4995587;28;20033;-47
2022/01/11 04:55:20;;;;;;;43.47;22.38;;;;;;;-1.44;100.00;103071.69;4994591;28;20569;-47
2022/01/11 04:57:45;;;;;;;45.88;24.20;;;;;;;-1.44;100.00;103075.28;4995117;28;20022;-48
2022/01/11 05:00:12;;;;;;;56.17;26.52;;;;;;;-1.35;100.00;103065.25;4992977;28;20026;-47
2022/01/11 05:02:38;;;;;;;43.92;21.60;;;;;;;-1.32;100.00;103066.78;4994693;28;20077;-48
2022/01/11 05:05:04;;;;;;;45.30;22.40;;;;;;;-1.36;100.00;103065.41;4995069;28;20026;-53
2022/01/11 05:07:29;;;;;;;44.97;22.67;;;;;;;-1.42;100.00;103069.66;4995061;28;20034;-49
2022/01/11 05:09:54;;;;;;;47.55;25.17;;;;;;;-1.46;100.00;103071.88;4994912;28;20026;-52
2022/01/11 05:12:20;;;;;;;46.15;25.17;;;;;;;-1.51;100.00;103074.22;4994652;28;20113;-51
2022/01/11 05:14:45;;;;;;;47.40;25.00;;;;;;;-1.56;100.00;103082.06;4994867;28;20034;-52
2022/01/11 05:17:10;;;;;;;50.10;23.52;;;;;;;-1.57;100.00;103067.66;4994594;28;20027;-49
2022/01/11 05:19:36;;;;;;;48.95;24.10;;;;;;;-1.53;100.00;103068.16;4993933;28;20018;-52
2022/01/11 05:22:01;;;;;;;46.65;23.08;;;;;;;-1.58;100.00;103073.22;4994696;28;20057;-53
2022/01/11 05:24:27;;;;;;;47.65;23.67;;;;;;;-1.59;100.00;103071.53;4994510;28;20058;-50
2022/01/11 05:26:53;;;;;;;48.40;24.17;;;;;;;-1.58;100.00;103074.09;4994703;28;20030;-50
2022/01/11 05:29:18;;;;;;;47.60;23.63;;;;;;;-1.60;100.00;103070.69;4992862;28;20034;-51
2022/01/11 05:31:43;;;;;;;45.75;23.35;;;;;;;-1.57;100.00;103066.78;4994632;28;20121;-50
2022/01/11 05:34:09;;;;;;;45.75;22.25;;;;;;;-1.54;100.00;103066.44;4993936;28;20462;-48
2022/01/11 05:36:34;;;;;;;53.38;27.85;;;;;;;-1.54;100.00;103068.31;4994857;28;20080;-49
2022/01/11 05:38:59;;;;;;;48.08;25.55;;;;;;;-1.61;100.00;103071.72;4994385;28;20105;-48
2022/01/11 05:41:24;;;;;;;47.05;23.63;;;;;;;-1.68;100.00;103070.69;4993128;28;20031;-49
2022/01/11 05:43:50;;;;;;;44.13;22.70;;;;;;;-1.74;100.00;103064.06;4992655;28;20034;-48
2022/01/11 05:46:15;;;;;;;47.45;23.67;;;;;;;-1.75;100.00;103067.81;4994027;28;20497;-48
2022/01/11 05:48:44;;;;;;;49.22;24.88;;;;;;;-1.69;100.00;103068.13;4992847;28;20023;-49
2022/01/11 05:51:11;;;;;;;48.63;23.92;;;;;;;-1.69;100.00;103074.41;4994046;28;20022;-48
2022/01/11 05:53:36;;;;;;;51.25;23.70;;;;;;;-1.70;100.00;103075.44;4993697;28;20053;-49
2022/01/11 05:56:03;;;;;;;44.97;24.08;;;;;;;-1.70;100.00;103083.56;4994828;28;20059;-48
2022/01/11 05:58:28;;;;;;;45.75;23.15;;;;;;;-1.70;100.00;103089.00;4993834;28;20030;-48
2022/01/11 06:00:53;;;;;;;44.03;22.35;;;;;;;-1.70;100.00;103094.44;4993289;28;20030;-46
2022/01/11 06:03:19;;;;;;;49.00;23.98;;;;;;;-1.70;100.00;103088.16;4992591;28;20061;-49
2022/01/11 06:05:44;;;;;;;47.83;22.75;;;;;;;-1.67;100.00;103088.69;4993162;28;20033;-50
2022/01/11 06:08:09;;;;;;;42.10;21.55;;;;;;;-1.64;100.00;103088.31;4993001;28;20465;-51
2022/01/11 06:10:34;;;;;;;47.08;23.05;;;;;;;-1.67;100.00;103096.81;4993982;28;20053;-48
2022/01/11 06:13:00;;;;;;;50.47;22.88;;;;;;;-1.76;100.00;103101.38;4992779;28;20056;-49
2022/01/11 06:15:29;;;;;;;46.20;24.27;;;;;;;-1.82;100.00;103104.78;4993767;28;20470;-52
2022/01/11 06:17:54;;;;;;;45.50;22.85;;;;;;;-1.88;100.00;103114.44;4994077;28;20054;-50
2022/01/11 06:20:19;;;;;;;48.42;22.85;;;;;;;-1.90;100.00;103121.88;4993509;28;20073;-51
2022/01/11 06:22:44;;;;;;;43.92;20.75;;;;;;;-1.83;100.00;103124.78;4993726;28;20034;-51
2022/01/11 06:25:10;;;;;;;43.65;23.02;;;;;;;-1.89;100.00;103130.88;4993894;28;20022;-49
2022/01/11 06:27:39;;;;;;;43.80;22.60;;;;;;;-1.94;100.00;103135.94;4993852;28;20031;-51
2022/01/11 06:30:09;;;;;;;41.25;21.98;;;;;;;-1.98;100.00;103131.88;4993697;28;20022;-51
2022/01/11 06:32:35;;;;;;;41.92;22.70;;;;;;;-1.96;100.00;103138.84;4993593;28;20034;-49
2022/01/11 06:35:00;;;;;;;42.13;21.83;;;;;;;-1.98;100.00;103143.56;4993708;28;20034;-53
2022/01/11 06:37:25;;;;;;;39.83;21.48;;;;;;;-1.99;100.00;103141.03;4993815;28;20030;-50
2022/01/11 06:39:51;;;;;;;42.53;21.13;;;;;;;-1.98;100.00;103137.31;4993998;28;20034;-50
2022/01/11 06:42:16;;;;;;;40.42;21.17;;;;;;;-1.97;100.00;103144.41;4993729;28;20026;-50
2022/01/11 06:44:42;;;;;;;45.17;22.35;;;;;;;-1.98;100.00;103146.28;4993430;28;20521;-49
2022/01/11 06:47:08;;;;;;;46.38;23.65;;;;;;;-2.04;100.00;103142.38;4993947;28;20402;-52
2022/01/11 06:49:33;;;;;;;47.10;22.90;;;;;;;-2.06;100.00;103147.09;4993670;28;20023;-52
2022/01/11 06:51:59;;;;;;;46.15;22.35;;;;;;;-2.06;100.00;103155.22;4993465;28;20027;-50
2022/01/11 06:54:24;;;;;;;40.83;21.02;;;;;;;-2.05;100.00;103150.69;4993424;28;20058;-50
2022/01/11 06:56:49;;;;;;;43.17;21.45;;;;;;;-2.08;100.00;103146.41;4993226;28;20450;-49
2022/01/11 06:59:15;;;;;;;46.58;23.60;;;;;;;-2.08;100.00;103159.97;4993343;28;20281;-49
2022/01/11 07:01:40;;;;;;;50.00;27.05;;;;;;;-2.09;100.00;103154.72;4993472;28;20398;-48
2022/01/11 07:04:06;;;;;;;40.20;20.45;;;;;;;-2.04;100.00;103149.66;4993150;28;20030;-50
2022/01/11 07:06:31;;;;;;;43.65;21.27;;;;;;;-2.03;100.00;103151.34;4993423;28;20019;-49
2022/01/11 07:08:56;;;;;;;39.60;19.77;;;;;;;-2.04;100.00;103150.50;4993281;28;20145;-48
2022/01/11 07:11:23;;;;;;;45.70;24.10;;;;;;;-2.06;100.00;103149.81;4991485;28;20030;-50
2022/01/11 07:13:48;;;;;;;41.05;21.35;;;;;;;-2.04;100.00;103158.63;4991741;28;20154;-48
2022/01/11 07:16:14;;;;;;;43.42;20.88;;;;;;;-1.99;100.00;103170.88;4992980;28;20116;-49
2022/01/11 07:18:39;;;;;;;36.95;19.38;;;;;;;-1.96;100.00;103168.69;4992790;28;20042;-52
2022/01/11 07:21:04;;;;;;;39.88;20.85;;;;;;;-1.92;100.00;103166.47;4992057;28;20050;-49
2022/01/11 07:23:30;;;;;;;42.22;19.08;;;;;;;-1.96;100.00;103179.53;4992857;28;20033;-48
2022/01/11 07:25:55;;;;;;;39.40;21.88;;;;;;;-1.97;100.00;103185.97;4992672;28;20038;-51
2022/01/11 07:28:20;;;;;;;43.20;25.73;;;;;;;-2.03;100.00;103175.75;4993262;28;20031;-49
2022/01/11 07:30:45;;;;;;;38.60;22.45;;;;;;;-2.02;100.00;103184.75;4993121;28;20037;-48
2022/01/11 07:33:11;;;;;;;37.03;19.98;;;;;;;-1.96;100.00;103181.38;4993366;28;20394;-50
2022/01/11 07:35:36;;;;;;;34.90;19.58;;;;;;;-1.95;100.00;103172.22;4993010;28;20058;-50
2022/01/11 07:38:01;;;;;;;39.83;23.70;;;;;;;-1.88;100.00;103181.41;4991675;28;20492;-48
2022/01/11 07:40:27;;;;;;;38.67;22.33;;;;;;;-1.83;100.00;103184.47;4992263;28;20038;-49
2022/01/11 07:42:52;;;;;;;34.67;19.73;;;;;;;-1.84;100.00;103182.78;4995022;28;20018;-47
2022/01/11 07:45:18;;;;;;;36.10;19.77;;;;;;;-1.84;100.00;103200.94;4995977;28;20033;-47
2022/01/11 07:47:43;;;;;;;34.20;18.05;;;;;;;-1.88;99.80;103200.38;4995922;28;20056;-48
2022/01/11 07:50:09;;;;;;;35.70;20.48;;;;;;;-1.90;100.00;103197.00;4995799;28;20389;-51
2022/01/11 07:52:35;;;;;;;38.22;20.85;;;;;;;-1.86;100.00;103203.78;4996569;28;20566;-50
2022/01/11 07:55:01;;;;;;;36.60;20.27;;;;;;;-1.86;100.00;103205.66;4996234;28;20047;-48
2022/01/11 07:57:27;;;;;;;37.80;19.02;;;;;;;-1.85;100.00;103200.06;4996870;28;20114;-48
2022/01/11 07:59:52;;;;;;;33.50;18.00;;;;;;;-1.85;100.00;103197.34;4996593;28;20057;-48
2022/01/11 08:02:17;;;;;;;37.53;19.58;;;;;;;-1.79;100.00;103202.13;4995270;28;20114;-48
2022/01/11 08:04:43;;;;;;;32.45;17.73;;;;;;;-1.77;100.00;103200.09;4996435;28;20493;-49
2022/01/11 08:07:10;;;;;;;33.65;19.05;;;;;;;-1.74;100.00;103205.19;4996386;28;20022;-48
2022/01/11 08:09:35;;;;;;;32.22;16.85;;;;;;;-1.71;99.77;103200.47;4996705;28;20493;-48
2022/01/11 08:12:00;;;;;;;31.85;17.42;;;;;;;-1.73;99.40;103206.91;4996350;28;20026;-48
2022/01/11 08:14:26;;;;;;;37.17;19.50;;;;;;;-1.75;99.24;103206.22;4996312;28;20023;-50
2022/01/11 08:16:52;;;;;;;35.20;20.08;;;;;;;-1.75;99.52;103206.22;4996214;28;20394;-48
2022/01/11 08:19:17;;;;;;;32.47;18.60;;;;;;;-1.71;99.56;103208.59;4996156;28;20105;-49
2022/01/11 08:21:43;;;;;;;33.80;18.73;;;;;;;-1.69;99.60;103199.28;4996172;28;20029;-48
2022/01/11 08:24:08;;;;;;;35.10;18.10;;;;;;;-1.61;99.88;103201.16;4996244;28;20482;-47
2022/01/11 08:26:34;;;;;;;36.00;20.75;;;;;;;-1.49;100.00;103207.13;4996047;28;20041;-49
2022/01/11 08:29:00;;;;;;;41.42;23.98;;;;;;;-1.42;99.57;103208.97;4996652;28;20393;-50
2022/01/11 08:31:25;;;;;;;35.20;19.08;;;;;;;-1.37;98.79;103205.75;4995916;28;20027;-47
2022/01/11 08:33:50;;;;;;;32.53;17.35;;;;;;;-1.34;98.64;103205.44;4996151;28;20040;-48
2022/01/11 08:36:16;;;;;;;32.03;17.05;;;;;;;-1.32;98.23;103205.28;4995838;28;20022;-48
2022/01/11 08:38:41;;;;;;;36.85;21.20;;;;;;;-1.24;99.15;103199.00;4994455;28;20034;-47
2022/01/11 08:41:08;;;;;;;36.47;20.40;;;;;;;-1.16;98.69;103197.13;4995829;28;20080;-51
2022/01/11 08:43:33;;;;;;;34.90;18.00;;;;;;;-1.10;98.35;103199.16;4995768;28;20033;-47
2022/01/11 08:45:58;;;;;;;32.70;18.17;;;;;;;-1.10;97.86;103203.78;4995586;28;20381;-47
2022/01/11 08:48:24;;;;;;;30.85;17.63;;;;;;;-1.08;98.00;103204.41;4995604;28;20038;-48
2022/01/11 08:50:53;;;;;;;32.92;18.85;;;;;;;-1.07;97.83;103213.44;4995756;28;20022;-48
2022/01/11 08:53:19;;;;;;;38.97;23.58;;;;;;;-1.07;97.58;103216.16;4994016;28;20022;-49
2022/01/11 08:55:45;;;;;;;33.80;18.52;;;;;;;-1.10;97.57;103201.06;4995490;28;20134;-48
2022/01/11 08:58:10;;;;;;;36.03;18.38;;;;;;;-1.05;97.40;103206.81;4994263;28;20129;-49
2022/01/11 09:00:35;;;;;;;37.03;18.27;;;;;;;-1.04;97.65;103200.38;4995543;28;20405;-48
2022/01/11 09:03:00;;;;;;;32.35;17.70;;;;;;;-0.98;97.55;103204.28;4995592;28;20092;-47
2022/01/11 09:05:26;;;;;;;35.28;21.25;;;;;;;-0.92;97.54;103213.59;4995297;28;20121;-49
2022/01/11 09:07:51;;;;;;;33.50;19.10;;;;;;;-0.86;97.34;103224.66;4995417;28;20466;-48
2022/01/11 09:10:17;;;;;;;33.20;18.00;;;;;;;-0.79;96.92;103228.38;4995200;28;20029;-47
2022/01/11 09:12:43;;;;;;;34.28;19.20;;;;;;;-0.77;96.83;103224.66;4995223;28;20075;-47
2022/01/11 09:15:09;;;;;;;32.38;18.58;;;;;;;-0.71;96.80;103234.81;4995507;28;20035;-50
2022/01/11 09:17:35;;;;;;;36.38;20.92;;;;;;;-0.64;97.22;103230.38;4994939;28;20018;-48
2022/01/11 09:20:01;;;;;;;32.58;19.15;;;;;;;-0.57;97.20;103231.44;4995037;28;20038;-48
2022/01/11 09:22:26;;;;;;;34.28;18.73;;;;;;;-0.53;96.37;103231.94;4994947;28;20026;-48
2022/01/11 09:24:51;;;;;;;32.25;18.98;;;;;;;-0.51;95.71;103225.28;4995015;28;20045;-48
2022/01/11 09:27:17;;;;;;;32.53;19.20;;;;;;;-0.41;96.49;103227.78;4995980;28;20034;-48
2022/01/11 09:29:43;;;;;;;35.35;20.90;;;;;;;-0.38;96.33;103219.31;4997293;28;20397;-47
2022/01/11 09:32:11;;;;;;;33.25;18.35;;;;;;;-0.35;96.39;103226.25;4995034;28;20445;-47
2022/01/11 09:34:39;;;;;;;35.42;18.30;;;;;;;-0.34;96.08;103222.50;4994130;28;20081;-48
2022/01/11 09:37:05;;;;;;;31.88;16.55;;;;;;;-0.32;95.39;103225.91;4994604;28;20075;-48
2022/01/11 09:39:30;;;;;;;33.80;18.40;;;;;;;-0.27;95.28;103237.09;4994159;28;20045;-51
2022/01/11 09:41:58;;;;;;;34.47;20.85;;;;;;;-0.22;95.21;103245.63;4995560;28;20393;-48
2022/01/11 09:44:24;;;;;;;31.40;18.33;;;;;;;-0.15;94.85;103245.78;4994360;28;20501;-47
2022/01/11 09:46:50;;;;;;;30.92;16.42;;;;;;;-0.10;94.77;103242.53;5004949;28;20041;-47
2022/01/11 09:49:15;;;;;;;31.50;16.90;;;;;;;-0.03;95.33;103246.25;5001537;28;20030;-48
2022/01/11 09:51:41;;;;;;;32.20;17.77;;;;;;;0.04;95.29;103241.78;5010230;28;20132;-47
2022/01/11 09:54:08;;;;;;;31.02;18.00;;;;;;;0.11;94.94;103248.22;4997401;28;20381;-47
2022/01/11 09:56:37;;;;;;;32.40;17.92;;;;;;;0.17;95.37;103256.72;5007146;28;20030;-48
2022/01/11 09:59:04;;;;;;;32.38;17.17;;;;;;;0.20;94.78;103259.91;5004885;28;20448;-46
2022/01/11 10:01:29;;;;;;;31.75;15.52;;;;;;;0.26;94.25;103267.38;4998968;28;20101;-48
2022/01/11 10:04:12;;;;;;;32.08;16.45;;;;;;;0.26;93.81;103252.94;5009955;28;20465;-49
2022/01/11 10:06:42;;;;;;;30.38;15.52;;;;;;;0.34;93.46;103252.00;5001466;28;20477;-50
2022/01/11 10:09:13;;;;;;;32.10;17.00;;;;;;;0.35;93.07;103248.28;5002296;28;20077;-48
2022/01/11 10:11:41;;;;;;;32.05;16.50;;;;;;;0.49;92.69;103254.84;5009620;28;20026;-47
2022/01/11 10:14:35;;;;;;;29.73;16.83;;;;;;;0.53;92.76;103257.03;4997168;28;20022;-47
2022/01/11 10:17:18;;;;;;;30.10;15.73;;;;;;;0.51;92.88;103242.75;5001740;28;20034;-47
2022/01/11 10:19:46;;;;;;;29.33;15.82;;;;;;;0.55;92.50;103245.97;5006904;28;20037;-48
2022/01/11 10:22:17;;;;;;;29.48;15.32;;;;;;;0.52;92.70;103236.25;4997682;28;20022;-49
2022/01/11 10:24:45;;;;;;;30.92;17.27;;;;;;;0.55;93.35;103241.34;5005515;28;20065;-48
2022/01/11 10:27:23;;;;;;;29.52;15.38;;;;;;;0.63;92.82;103251.34;5005589;28;20080;-48
2022/01/11 10:29:54;;;;;;;29.67;15.77;;;;;;;0.65;92.96;103243.88;4997165;28;20036;-48
2022/01/11 10:32:26;;;;;;;31.42;15.65;;;;;;;0.64;92.29;103236.72;5007141;28;20026;-50
2022/01/11 10:34:55;;;;;;;33.78;18.13;;;;;;;0.66;93.16;103250.16;5002766;28;20037;-48
2022/01/11 10:37:28;;;;;;;28.73;16.05;;;;;;;0.69;93.11;103245.19;4999906;28;20447;-47
2022/01/11 10:40:03;;;;;;;30.13;15.57;;;;;;;0.72;92.15;103250.28;5009749;28;20030;-48
2022/01/11 10:42:33;;;;;;;31.83;16.15;;;;;;;0.79;92.96;103244.97;4998282;28;20097;-49
2022/01/11 10:45:01;;;;;;;32.75;16.38;;;;;;;0.84;92.79;103249.88;5002907;28;20026;-48
2022/01/11 10:47:29;;;;;;;28.67;15.50;;;;;;;0.86;92.92;103245.06;5007296;28;20037;-47
2022/01/11 10:50:01;;;;;;;32.30;17.75;;;;;;;0.89;93.52;103251.03;4995434;28;20026;-50
2022/01/11 10:52:32;;;;;;;31.60;16.15;;;;;;;0.86;92.59;103243.19;4999574;28;20116;-48
2022/01/11 10:54:59;;;;;;;30.48;15.73;;;;;;;0.89;92.00;103242.84;5011580;28;20046;-48
2022/01/11 10:57:28;;;;;;;28.88;15.10;;;;;;;0.95;92.34;103252.16;5012795;28;20029;-48
2022/01/11 11:00:10;;;;;;;28.33;16.35;;;;;;;0.99;92.35;103255.38;5011246;28;20030;-49
2022/01/11 11:02:36;;;;;;;30.40;16.33;;;;;;;1.02;92.05;103247.69;5013262;28;20030;-51
2022/01/11 11:05:15;;;;;;;29.13;15.80;;;;;;;1.09;92.29;103250.50;5013258;28;20026;-51
2022/01/11 11:07:42;;;;;;;30.15;15.60;;;;;;;1.13;92.23;103251.84;5013204;28;20113;-53